Terminal Aerodrome Forecast
Issued by NWS

Home | Current Version | Previous Version | Graphics & Text | Print | Product List | Glossary On
Versions: 1 2 3 4 5 6 7 8 9 10 11 12 13 14 15 16 17
512
FTUS43 KICT 251331 AAA
TAFSLN
TAF AMD
KSLN 251331Z 2514/2612 08010KT P6SM -SHRA VCTS SCT050 OVC080CB
     FM251600 07010KT P6SM SCT040 BKN100=

USA.gov is the U.S. government's official web portal to all federal, state and local government web resources and services.